sensor_id;sensor_type;location;lat;lon;timestamp;pressure;altitude;pressure_sealevel;temperature;humidity
19128;BME280;9696;53.686;10.094;2023-06-19T00:02:06;101024.28;;;18.75;100.00
19128;BME280;9696;53.686;10.094;2023-06-19T00:04:35;101016.47;;;18.73;100.00
19128;BME280;9696;53.686;10.094;2023-06-19T00:07:05;101018.28;;;18.73;100.00
19128;BME280;9696;53.686;10.094;2023-06-19T00:09:34;101017.81;;;18.69;100.00
19128;BME280;9696;53.686;10.094;2023-06-19T00:12:05;101019.38;;;18.64;100.00
19128;BME280;9696;53.686;10.094;2023-06-19T00:14:34;101018.66;;;18.70;100.00
19128;BME280;9696;53.686;10.094;2023-06-19T00:17:05;101013.34;;;18.70;100.00
19128;BME280;9696;53.686;10.094;2023-06-19T00:19:34;101014.00;;;18.72;100.00
19128;BME280;9696;53.686;10.094;2023-06-19T00:22:04;101009.84;;;18.69;100.00
19128;BME280;9696;53.686;10.094;2023-06-19T00:24:33;101012.50;;;18.69;100.00
19128;BME280;9696;53.686;10.094;2023-06-19T00:27:05;101005.72;;;18.67;100.00
19128;BME280;9696;53.686;10.094;2023-06-19T00:29:34;101007.56;;;18.66;100.00
19128;BME280;9696;53.686;10.094;2023-06-19T00:32:04;101008.38;;;18.67;100.00
19128;BME280;9696;53.686;10.094;2023-06-19T00:34:34;101003.97;;;18.59;100.00
19128;BME280;9696;53.686;10.094;2023-06-19T00:37:05;101008.56;;;18.65;100.00
19128;BME280;9696;53.686;10.094;2023-06-19T00:39:37;101001.19;;;18.75;100.00
19128;BME280;9696;53.686;10.094;2023-06-19T00:42:09;101006.19;;;18.70;100.00
19128;BME280;9696;53.686;10.094;2023-06-19T00:44:39;101005.38;;;18.70;100.00
19128;BME280;9696;53.686;10.094;2023-06-19T00:47:09;101013.34;;;18.70;100.00
19128;BME280;9696;53.686;10.094;2023-06-19T00:49:38;101023.03;;;18.63;100.00
19128;BME280;9696;53.686;10.094;2023-06-19T00:52:08;101018.63;;;18.47;100.00
19128;BME280;9696;53.686;10.094;2023-06-19T00:54:37;101005.72;;;18.44;100.00
19128;BME280;9696;53.686;10.094;2023-06-19T00:57:07;101007.28;;;18.30;100.00
19128;BME280;9696;53.686;10.094;2023-06-19T00:59:38;100998.09;;;18.10;100.00
19128;BME280;9696;53.686;10.094;2023-06-19T01:02:08;101007.81;;;17.95;100.00
19128;BME280;9696;53.686;10.094;2023-06-19T01:04:37;100997.56;;;17.92;100.00
19128;BME280;9696;53.686;10.094;2023-06-19T01:07:09;100999.72;;;17.88;100.00
19128;BME280;9696;53.686;10.094;2023-06-19T01:09:46;101008.84;;;17.86;100.00
19128;BME280;9696;53.686;10.094;2023-06-19T01:12:18;101003.38;;;17.87;100.00
19128;BME280;9696;53.686;10.094;2023-06-19T01:14:52;101002.88;;;17.92;100.00
19128;BME280;9696;53.686;10.094;2023-06-19T01:17:23;100997.91;;;17.89;100.00
19128;BME280;9696;53.686;10.094;2023-06-19T01:19:54;100992.72;;;17.96;100.00
19128;BME280;9696;53.686;10.094;2023-06-19T01:22:29;100984.63;;;17.89;100.00
19128;BME280;9696;53.686;10.094;2023-06-19T01:25:01;100982.34;;;17.78;100.00
19128;BME280;9696;53.686;10.094;2023-06-19T01:27:32;100971.41;;;17.81;100.00
19128;BME280;9696;53.686;10.094;2023-06-19T01:30:03;100968.41;;;17.84;100.00
19128;BME280;9696;53.686;10.094;2023-06-19T01:32:39;100960.44;;;17.84;100.00
19128;BME280;9696;53.686;10.094;2023-06-19T01:35:10;100959.25;;;17.86;100.00
19128;BME280;9696;53.686;10.094;2023-06-19T01:37:45;100949.31;;;17.88;100.00
19128;BME280;9696;53.686;10.094;2023-06-19T01:40:18;100949.94;;;17.90;100.00
19128;BME280;9696;53.686;10.094;2023-06-19T01:42:50;100955.88;;;18.01;100.00
19128;BME280;9696;53.686;10.094;2023-06-19T01:45:19;100954.56;;;17.97;100.00
19128;BME280;9696;53.686;10.094;2023-06-19T01:47:49;100945.25;;;18.01;100.00
19128;BME280;9696;53.686;10.094;2023-06-19T01:50:18;100943.06;;;18.04;100.00
19128;BME280;9696;53.686;10.094;2023-06-19T01:52:50;100944.59;;;17.99;100.00
19128;BME280;9696;53.686;10.094;2023-06-19T01:55:19;100945.38;;;18.07;100.00
19128;BME280;9696;53.686;10.094;2023-06-19T01:57:48;100944.53;;;18.07;100.00
19128;BME280;9696;53.686;10.094;2023-06-19T02:00:18;100945.66;;;18.12;100.00
19128;BME280;9696;53.686;10.094;2023-06-19T02:02:48;100936.34;;;18.16;100.00
19128;BME280;9696;53.686;10.094;2023-06-19T02:05:18;100936.50;;;18.15;100.00
19128;BME280;9696;53.686;10.094;2023-06-19T02:07:48;100951.91;;;17.97;100.00
19128;BME280;9696;53.686;10.094;2023-06-19T02:10:17;100949.06;;;17.98;100.00
19128;BME280;9696;53.686;10.094;2023-06-19T02:12:47;100943.84;;;18.13;100.00
19128;BME280;9696;53.686;10.094;2023-06-19T02:15:16;100939.47;;;18.20;100.00
19128;BME280;9696;53.686;10.094;2023-06-19T02:17:45;100937.91;;;18.25;100.00
19128;BME280;9696;53.686;10.094;2023-06-19T02:20:15;100939.41;;;18.28;100.00
19128;BME280;9696;53.686;10.094;2023-06-19T02:22:44;100932.75;;;18.32;100.00
19128;BME280;9696;53.686;10.094;2023-06-19T02:25:15;100929.88;;;18.33;100.00
19128;BME280;9696;53.686;10.094;2023-06-19T02:27:44;100922.59;;;18.35;100.00
19128;BME280;9696;53.686;10.094;2023-06-19T02:30:14;100923.53;;;18.43;100.00
19128;BME280;9696;53.686;10.094;2023-06-19T02:32:43;100920.88;;;18.43;100.00
19128;BME280;9696;53.686;10.094;2023-06-19T02:35:12;100919.50;;;18.47;100.00
19128;BME280;9696;53.686;10.094;2023-06-19T02:37:43;100924.66;;;18.48;100.00
19128;BME280;9696;53.686;10.094;2023-06-19T02:40:15;100922.69;;;18.42;100.00
19128;BME280;9696;53.686;10.094;2023-06-19T02:42:45;100928.47;;;18.46;100.00
19128;BME280;9696;53.686;10.094;2023-06-19T02:45:15;100925.81;;;18.46;100.00
19128;BME280;9696;53.686;10.094;2023-06-19T02:47:44;100929.66;;;18.43;100.00
19128;BME280;9696;53.686;10.094;2023-06-19T02:50:13;100924.03;;;18.38;100.00
19128;BME280;9696;53.686;10.094;2023-06-19T02:52:43;100928.38;;;18.39;100.00
19128;BME280;9696;53.686;10.094;2023-06-19T02:55:12;100921.59;;;18.36;100.00
19128;BME280;9696;53.686;10.094;2023-06-19T02:57:42;100921.22;;;18.40;100.00
19128;BME280;9696;53.686;10.094;2023-06-19T03:00:13;100922.88;;;18.41;100.00
19128;BME280;9696;53.686;10.094;2023-06-19T03:02:43;100921.59;;;18.36;100.00
19128;BME280;9696;53.686;10.094;2023-06-19T03:05:13;100908.56;;;18.42;100.00
19128;BME280;9696;53.686;10.094;2023-06-19T03:07:44;100916.38;;;18.43;100.00
19128;BME280;9696;53.686;10.094;2023-06-19T03:10:13;100915.63;;;18.34;100.00
19128;BME280;9696;53.686;10.094;2023-06-19T03:12:43;100908.94;;;18.38;100.00
19128;BME280;9696;53.686;10.094;2023-06-19T03:15:13;100908.47;;;18.35;100.00
19128;BME280;9696;53.686;10.094;2023-06-19T03:17:46;100907.47;;;18.36;100.00
19128;BME280;9696;53.686;10.094;2023-06-19T03:20:16;100909.91;;;18.23;100.00
19128;BME280;9696;53.686;10.094;2023-06-19T03:22:51;100913.84;;;18.27;100.00
19128;BME280;9696;53.686;10.094;2023-06-19T03:25:22;100903.16;;;18.35;100.00
19128;BME280;9696;53.686;10.094;2023-06-19T03:27:53;100898.38;;;18.30;100.00
19128;BME280;9696;53.686;10.094;2023-06-19T03:30:23;100894.38;;;18.34;100.00
19128;BME280;9696;53.686;10.094;2023-06-19T03:32:52;100904.00;;;18.35;100.00
19128;BME280;9696;53.686;10.094;2023-06-19T03:35:40;100901.91;;;18.46;100.00
19128;BME280;9696;53.686;10.094;2023-06-19T03:38:16;100907.41;;;18.44;100.00
19128;BME280;9696;53.686;10.094;2023-06-19T03:40:45;100901.38;;;18.50;100.00
19128;BME280;9696;53.686;10.094;2023-06-19T03:43:15;100907.84;;;18.56;100.00
19128;BME280;9696;53.686;10.094;2023-06-19T03:45:45;100903.97;;;18.58;100.00
19128;BME280;9696;53.686;10.094;2023-06-19T03:48:16;100899.50;;;18.59;100.00
19128;BME280;9696;53.686;10.094;2023-06-19T03:50:45;100897.22;;;18.56;100.00
19128;BME280;9696;53.686;10.094;2023-06-19T03:53:14;100886.88;;;18.38;100.00
19128;BME280;9696;53.686;10.094;2023-06-19T03:55:43;100879.69;;;18.61;100.00
19128;BME280;9696;53.686;10.094;2023-06-19T03:58:15;100872.47;;;18.70;100.00
19128;BME280;9696;53.686;10.094;2023-06-19T04:00:44;100870.34;;;18.65;100.00
19128;BME280;9696;53.686;10.094;2023-06-19T04:03:13;100874.69;;;18.66;100.00
19128;BME280;9696;53.686;10.094;2023-06-19T04:05:43;100882.75;;;18.73;100.00
19128;BME280;9696;53.686;10.094;2023-06-19T04:08:13;100872.56;;;18.62;100.00
19128;BME280;9696;53.686;10.094;2023-06-19T04:10:43;100868.28;;;18.75;100.00
19128;BME280;9696;53.686;10.094;2023-06-19T04:13:14;100876.06;;;18.77;100.00
19128;BME280;9696;53.686;10.094;2023-06-19T04:15:44;100869.09;;;18.76;100.00
19128;BME280;9696;53.686;10.094;2023-06-19T04:18:17;100863.66;;;18.69;100.00
19128;BME280;9696;53.686;10.094;2023-06-19T04:20:46;100855.69;;;18.69;100.00
19128;BME280;9696;53.686;10.094;2023-06-19T04:23:15;100857.19;;;18.49;100.00
19128;BME280;9696;53.686;10.094;2023-06-19T04:25:44;100856.63;;;18.62;100.00
19128;BME280;9696;53.686;10.094;2023-06-19T04:28:15;100866.50;;;18.53;100.00
19128;BME280;9696;53.686;10.094;2023-06-19T04:30:44;100869.72;;;18.63;100.00
19128;BME280;9696;53.686;10.094;2023-06-19T04:33:13;100875.03;;;18.63;100.00
19128;BME280;9696;53.686;10.094;2023-06-19T04:35:42;100889.81;;;18.43;100.00
19128;BME280;9696;53.686;10.094;2023-06-19T04:38:12;100884.84;;;18.63;100.00
19128;BME280;9696;53.686;10.094;2023-06-19T04:40:42;100877.16;;;18.68;100.00
19128;BME280;9696;53.686;10.094;2023-06-19T04:43:12;100881.19;;;18.64;100.00
19128;BME280;9696;53.686;10.094;2023-06-19T04:45:42;100885.84;;;18.62;100.00
19128;BME280;9696;53.686;10.094;2023-06-19T04:48:11;100890.91;;;18.71;100.00
19128;BME280;9696;53.686;10.094;2023-06-19T04:50:41;100888.03;;;18.58;100.00
19128;BME280;9696;53.686;10.094;2023-06-19T04:53:10;100891.72;;;18.49;100.00
19128;BME280;9696;53.686;10.094;2023-06-19T04:55:39;100883.47;;;18.67;100.00
19128;BME280;9696;53.686;10.094;2023-06-19T04:58:08;100885.69;;;18.63;100.00
19128;BME280;9696;53.686;10.094;2023-06-19T05:00:37;100891.72;;;18.49;100.00
19128;BME280;9696;53.686;10.094;2023-06-19T05:03:08;100887.78;;;18.45;100.00
19128;BME280;9696;53.686;10.094;2023-06-19T05:05:42;100889.25;;;18.56;100.00
19128;BME280;9696;53.686;10.094;2023-06-19T05:08:12;100888.78;;;18.52;100.00
19128;BME280;9696;53.686;10.094;2023-06-19T05:10:42;100874.66;;;18.52;100.00
19128;BME280;9696;53.686;10.094;2023-06-19T05:13:14;100876.41;;;18.59;100.00
19128;BME280;9696;53.686;10.094;2023-06-19T05:15:44;100871.47;;;18.71;100.00
19128;BME280;9696;53.686;10.094;2023-06-19T05:18:16;100874.84;;;18.65;100.00
19128;BME280;9696;53.686;10.094;2023-06-19T05:20:52;100868.28;;;18.75;100.00
19128;BME280;9696;53.686;10.094;2023-06-19T05:23:21;100867.16;;;18.84;100.00
19128;BME280;9696;53.686;10.094;2023-06-19T05:25:50;100872.38;;;18.78;100.00
19128;BME280;9696;53.686;10.094;2023-06-19T05:28:19;100866.25;;;18.77;100.00
19128;BME280;9696;53.686;10.094;2023-06-19T05:30:49;100866.16;;;18.86;100.00
19128;BME280;9696;53.686;10.094;2023-06-19T05:33:20;100878.63;;;18.85;100.00
19128;BME280;9696;53.686;10.094;2023-06-19T05:35:51;100862.97;;;18.75;100.00
19128;BME280;9696;53.686;10.094;2023-06-19T05:38:21;100870.84;;;18.83;100.00
19128;BME280;9696;53.686;10.094;2023-06-19T05:40:53;100877.38;;;18.96;100.00
19128;BME280;9696;53.686;10.094;2023-06-19T05:43:23;100864.59;;;19.06;100.00
19128;BME280;9696;53.686;10.094;2023-06-19T05:45:53;100870.28;;;19.03;100.00
19128;BME280;9696;53.686;10.094;2023-06-19T05:48:25;100882.47;;;18.97;100.00
19128;BME280;9696;53.686;10.094;2023-06-19T05:50:54;100877.28;;;19.04;100.00
19128;BME280;9696;53.686;10.094;2023-06-19T05:53:23;100879.72;;;19.05;100.00
19128;BME280;9696;53.686;10.094;2023-06-19T05:55:53;100882.28;;;19.13;100.00
19128;BME280;9696;53.686;10.094;2023-06-19T05:58:22;100893.75;;;19.14;100.00
19128;BME280;9696;53.686;10.094;2023-06-19T06:00:53;100893.31;;;19.10;100.00
19128;BME280;9696;53.686;10.094;2023-06-19T06:03:27;100888.72;;;19.04;100.00
19128;BME280;9696;53.686;10.094;2023-06-19T06:05:58;100891.38;;;19.04;100.00
19128;BME280;9696;53.686;10.094;2023-06-19T06:08:32;100895.97;;;19.10;100.00
19128;BME280;9696;53.686;10.094;2023-06-19T06:11:02;100911.63;;;19.05;100.00
19128;BME280;9696;53.686;10.094;2023-06-19T06:13:31;100910.94;;;19.11;100.00
19128;BME280;9696;53.686;10.094;2023-06-19T06:16:00;100914.66;;;19.17;100.00
19128;BME280;9696;53.686;10.094;2023-06-19T06:18:31;100914.50;;;19.04;100.00
19128;BME280;9696;53.686;10.094;2023-06-19T06:21:00;100913.66;;;19.18;100.00
19128;BME280;9696;53.686;10.094;2023-06-19T06:23:29;100922.09;;;19.21;100.00
19128;BME280;9696;53.686;10.094;2023-06-19T06:25:59;100918.97;;;19.18;100.00
19128;BME280;9696;53.686;10.094;2023-06-19T06:28:31;100926.94;;;19.33;100.00
19128;BME280;9696;53.686;10.094;2023-06-19T06:31:00;100925.72;;;19.43;100.00
19128;BME280;9696;53.686;10.094;2023-06-19T06:33:31;100938.53;;;19.40;100.00
19128;BME280;9696;53.686;10.094;2023-06-19T06:36:00;100937.44;;;19.49;100.00
19128;BME280;9696;53.686;10.094;2023-06-19T06:38:29;100943.03;;;19.39;100.00
19128;BME280;9696;53.686;10.094;2023-06-19T06:40:58;100933.47;;;19.45;100.00
19128;BME280;9696;53.686;10.094;2023-06-19T06:43:28;100936.34;;;19.43;100.00
19128;BME280;9696;53.686;10.094;2023-06-19T06:45:57;100936.50;;;19.27;100.00
19128;BME280;9696;53.686;10.094;2023-06-19T06:48:27;100936.97;;;19.16;100.00
19128;BME280;9696;53.686;10.094;2023-06-19T06:50:57;100938.06;;;19.21;100.00
19128;BME280;9696;53.686;10.094;2023-06-19T06:53:29;100933.19;;;19.25;100.00
19128;BME280;9696;53.686;10.094;2023-06-19T06:55:59;100933.47;;;19.30;100.00
19128;BME280;9696;53.686;10.094;2023-06-19T06:58:29;100926.72;;;19.42;100.00
19128;BME280;9696;53.686;10.094;2023-06-19T07:01:02;100928.78;;;19.61;100.00
19128;BME280;9696;53.686;10.094;2023-06-19T07:03:31;100939.44;;;19.61;100.00
19128;BME280;9696;53.686;10.094;2023-06-19T07:06:02;100935.91;;;19.75;100.00
19128;BME280;9696;53.686;10.094;2023-06-19T07:08:31;100933.75;;;19.50;100.00
19128;BME280;9696;53.686;10.094;2023-06-19T07:11:00;100929.44;;;19.34;100.00
19128;BME280;9696;53.686;10.094;2023-06-19T07:13:29;100917.06;;;19.26;100.00
19128;BME280;9696;53.686;10.094;2023-06-19T07:15:58;100920.19;;;19.30;100.00
19128;BME280;9696;53.686;10.094;2023-06-19T07:18:29;100915.31;;;19.19;100.00
19128;BME280;9696;53.686;10.094;2023-06-19T07:20:58;100908.88;;;19.13;100.00
19128;BME280;9696;53.686;10.094;2023-06-19T07:23:29;100915.94;;;19.21;100.00
19128;BME280;9696;53.686;10.094;2023-06-19T07:25:58;100938.53;;;19.10;100.00
19128;BME280;9696;53.686;10.094;2023-06-19T07:28:27;100933.66;;;19.14;100.00
19128;BME280;9696;53.686;10.094;2023-06-19T07:30:57;100927.69;;;19.26;100.00
19128;BME280;9696;53.686;10.094;2023-06-19T07:33:26;100935.75;;;19.33;100.00
19128;BME280;9696;53.686;10.094;2023-06-19T07:35:56;100925.13;;;19.48;100.00
19128;BME280;9696;53.686;10.094;2023-06-19T07:38:25;100924.13;;;19.49;100.00
19128;BME280;9696;53.686;10.094;2023-06-19T07:40:56;100922.53;;;19.69;100.00
19128;BME280;9696;53.686;10.094;2023-06-19T07:43:25;100916.69;;;19.59;100.00
19128;BME280;9696;53.686;10.094;2023-06-19T07:45:54;100911.91;;;19.25;100.00
19128;BME280;9696;53.686;10.094;2023-06-19T07:48:24;100918.25;;;19.39;100.00
19128;BME280;9696;53.686;10.094;2023-06-19T07:50:54;100919.19;;;19.46;100.00
19128;BME280;9696;53.686;10.094;2023-06-19T07:53:23;100923.75;;;19.66;100.00
19128;BME280;9696;53.686;10.094;2023-06-19T07:55:52;100917.69;;;19.58;100.00
19128;BME280;9696;53.686;10.094;2023-06-19T07:58:23;100919.16;;;19.60;100.00
19128;BME280;9696;53.686;10.094;2023-06-19T08:00:52;100922.34;;;19.70;100.00
19128;BME280;9696;53.686;10.094;2023-06-19T08:03:21;100914.69;;;19.82;100.00
19128;BME280;9696;53.686;10.094;2023-06-19T08:05:52;100918.47;;;19.73;100.00
19128;BME280;9696;53.686;10.094;2023-06-19T08:08:22;100922.16;;;19.72;100.00
19128;BME280;9696;53.686;10.094;2023-06-19T08:10:51;100918.31;;;19.74;100.00
19128;BME280;9696;53.686;10.094;2023-06-19T08:13:21;100914.47;;;19.98;100.00
19128;BME280;9696;53.686;10.094;2023-06-19T08:15:51;100915.84;;;20.15;100.00
19128;BME280;9696;53.686;10.094;2023-06-19T08:18:20;100920.13;;;20.31;100.00
19128;BME280;9696;53.686;10.094;2023-06-19T08:20:49;100921.25;;;20.43;100.00
19128;BME280;9696;53.686;10.094;2023-06-19T08:23:18;100914.09;;;20.99;100.00
19128;BME280;9696;53.686;10.094;2023-06-19T08:25:47;100902.44;;;21.95;100.00
19128;BME280;9696;53.686;10.094;2023-06-19T08:28:18;100904.91;;;21.43;100.00
19128;BME280;9696;53.686;10.094;2023-06-19T08:30:49;100896.91;;;22.17;100.00
19128;BME280;9696;53.686;10.094;2023-06-19T08:33:18;100894.63;;;21.94;100.00
19128;BME280;9696;53.686;10.094;2023-06-19T08:35:47;100886.84;;;22.58;100.00
19128;BME280;9696;53.686;10.094;2023-06-19T08:38:17;100890.75;;;22.49;100.00
19128;BME280;9696;53.686;10.094;2023-06-19T08:40:46;100875.72;;;22.68;100.00
19128;BME280;9696;53.686;10.094;2023-06-19T08:43:15;100883.13;;;22.85;100.00
19128;BME280;9696;53.686;10.094;2023-06-19T08:45:58;100881.50;;;22.84;100.00
19128;BME280;9696;53.686;10.094;2023-06-19T08:48:35;100873.56;;;23.22;100.00
19128;BME280;9696;53.686;10.094;2023-06-19T08:51:04;100878.63;;;22.73;100.00
19128;BME280;9696;53.686;10.094;2023-06-19T08:53:35;100873.09;;;23.38;100.00
19128;BME280;9696;53.686;10.094;2023-06-19T08:56:06;100877.94;;;23.03;100.00
19128;BME280;9696;53.686;10.094;2023-06-19T08:58:35;100869.16;;;23.47;100.00
19128;BME280;9696;53.686;10.094;2023-06-19T09:01:06;100871.78;;;23.92;100.00
19128;BME280;9696;53.686;10.094;2023-06-19T09:03:35;100864.97;;;23.96;100.00
19128;BME280;9696;53.686;10.094;2023-06-19T09:06:07;100865.84;;;23.90;100.00
19128;BME280;9696;53.686;10.094;2023-06-19T09:08:37;100874.94;;;25.06;100.00
19128;BME280;9696;53.686;10.094;2023-06-19T09:11:06;100874.41;;;23.99;100.00
19128;BME280;9696;53.686;10.094;2023-06-19T09:13:37;100882.38;;;24.12;100.00
19128;BME280;9696;53.686;10.094;2023-06-19T09:16:08;100873.59;;;23.98;100.00
19128;BME280;9696;53.686;10.094;2023-06-19T09:18:45;100879.78;;;23.99;100.00
19128;BME280;9696;53.686;10.094;2023-06-19T09:21:21;100873.31;;;23.75;100.00
19128;BME280;9696;53.686;10.094;2023-06-19T09:23:51;100872.31;;;23.76;100.00
19128;BME280;9696;53.686;10.094;2023-06-19T09:26:27;100868.03;;;24.00;100.00
19128;BME280;9696;53.686;10.094;2023-06-19T09:28:56;100878.19;;;24.22;100.00
19128;BME280;9696;53.686;10.094;2023-06-19T09:31:34;100875.94;;;24.19;100.00
19128;BME280;9696;53.686;10.094;2023-06-19T09:34:03;100870.06;;;23.73;100.00
19128;BME280;9696;53.686;10.094;2023-06-19T09:36:32;100869.56;;;23.89;100.00
19128;BME280;9696;53.686;10.094;2023-06-19T09:39:03;100863.16;;;24.21;100.00
19128;BME280;9696;53.686;10.094;2023-06-19T09:41:33;100864.94;;;24.77;100.00
19128;BME280;9696;53.686;10.094;2023-06-19T09:44:04;100869.31;;;24.47;100.00
19128;BME280;9696;53.686;10.094;2023-06-19T09:46:44;100868.47;;;24.96;100.00
19128;BME280;9696;53.686;10.094;2023-06-19T09:49:16;100862.16;;;25.38;100.00
19128;BME280;9696;53.686;10.094;2023-06-19T09:51:46;100866.91;;;24.81;100.00
19128;BME280;9696;53.686;10.094;2023-06-19T09:54:20;100868.47;;;24.96;100.00
19128;BME280;9696;53.686;10.094;2023-06-19T09:56:51;100862.88;;;25.45;100.00
19128;BME280;9696;53.686;10.094;2023-06-19T09:59:23;100866.06;;;25.24;100.00
19128;BME280;9696;53.686;10.094;2023-06-19T10:01:54;100868.34;;;25.87;100.00
19128;BME280;9696;53.686;10.094;2023-06-19T10:04:24;100865.38;;;25.47;100.00
19128;BME280;9696;53.686;10.094;2023-06-19T10:06:54;100869.22;;;25.51;100.00
19128;BME280;9696;53.686;10.094;2023-06-19T10:09:33;100868.25;;;25.45;100.00
19128;BME280;9696;53.686;10.094;2023-06-19T10:12:12;100860.75;;;26.37;100.00
19128;BME280;9696;53.686;10.094;2023-06-19T10:14:47;100864.31;;;25.66;100.00
19128;BME280;9696;53.686;10.094;2023-06-19T10:17:18;100854.44;;;25.90;100.00
19128;BME280;9696;53.686;10.094;2023-06-19T10:19:51;100854.31;;;26.26;100.00
19128;BME280;9696;53.686;10.094;2023-06-19T10:22:21;100856.31;;;26.65;100.00
19128;BME280;9696;53.686;10.094;2023-06-19T10:24:50;100852.28;;;27.03;100.00
19128;BME280;9696;53.686;10.094;2023-06-19T10:27:22;100847.06;;;26.73;100.00
19128;BME280;9696;53.686;10.094;2023-06-19T10:29:53;100850.59;;;26.39;100.00
19128;BME280;9696;53.686;10.094;2023-06-19T10:32:33;100841.69;;;26.27;100.00
19128;BME280;9696;53.686;10.094;2023-06-19T10:35:11;100842.75;;;27.63;100.00
19128;BME280;9696;53.686;10.094;2023-06-19T10:37:41;100840.91;;;27.52;100.00
19128;BME280;9696;53.686;10.094;2023-06-19T10:40:11;100839.19;;;26.71;100.00
19128;BME280;9696;53.686;10.094;2023-06-19T10:42:41;100847.03;;;26.15;100.00
19128;BME280;9696;53.686;10.094;2023-06-19T10:45:11;100852.78;;;26.30;100.00
19128;BME280;9696;53.686;10.094;2023-06-19T10:47:43;100846.47;;;26.36;100.00
19128;BME280;9696;53.686;10.094;2023-06-19T10:50:14;100850.91;;;26.19;100.00
19128;BME280;9696;53.686;10.094;2023-06-19T10:52:44;100852.19;;;26.74;100.00
19128;BME280;9696;53.686;10.094;2023-06-19T10:55:14;100850.91;;;26.77;100.00
19128;BME280;9696;53.686;10.094;2023-06-19T10:57:45;100851.72;;;27.52;100.00
19128;BME280;9696;53.686;10.094;2023-06-19T11:00:23;100848.69;;;26.97;100.00
19128;BME280;9696;53.686;10.094;2023-06-19T11:02:55;100852.19;;;28.61;100.00
19128;BME280;9696;53.686;10.094;2023-06-19T11:05:26;100855.53;;;27.85;100.00
19128;BME280;9696;53.686;10.094;2023-06-19T11:07:57;100856.09;;;27.87;100.00
19128;BME280;9696;53.686;10.094;2023-06-19T11:10:28;100851.91;;;27.79;100.00
19128;BME280;9696;53.686;10.094;2023-06-19T11:12:58;100850.53;;;27.77;100.00
19128;BME280;9696;53.686;10.094;2023-06-19T11:15:31;100849.22;;;27.11;100.00
19128;BME280;9696;53.686;10.094;2023-06-19T11:18:03;100844.03;;;28.23;100.00
19128;BME280;9696;53.686;10.094;2023-06-19T11:20:43;100848.13;;;28.25;100.00
19128;BME280;9696;53.686;10.094;2023-06-19T11:23:13;100845.19;;;28.27;100.00
19128;BME280;9696;53.686;10.094;2023-06-19T11:25:42;100846.41;;;28.36;100.00
19128;BME280;9696;53.686;10.094;2023-06-19T11:28:12;100845.75;;;28.45;100.00
19128;BME280;9696;53.686;10.094;2023-06-19T11:30:42;100844.47;;;27.41;100.00
19128;BME280;9696;53.686;10.094;2023-06-19T11:33:20;100841.94;;;29.01;100.00
19128;BME280;9696;53.686;10.094;2023-06-19T11:35:51;100850.72;;;28.53;100.00
19128;BME280;9696;53.686;10.094;2023-06-19T11:38:25;100851.50;;;28.16;100.00
19128;BME280;9696;53.686;10.094;2023-06-19T11:40:55;100848.72;;;28.82;100.00
19128;BME280;9696;53.686;10.094;2023-06-19T11:43:25;100852.53;;;27.70;100.00
19128;BME280;9696;53.686;10.094;2023-06-19T11:46:02;100846.09;;;28.87;100.00
19128;BME280;9696;53.686;10.094;2023-06-19T11:48:37;100850.69;;;28.15;100.00
19128;BME280;9696;53.686;10.094;2023-06-19T11:51:06;100843.16;;;27.72;100.00
19128;BME280;9696;53.686;10.094;2023-06-19T11:53:35;100848.59;;;28.55;100.00
19128;BME280;9696;53.686;10.094;2023-06-19T11:56:05;100846.22;;;27.47;100.00
19128;BME280;9696;53.686;10.094;2023-06-19T11:58:34;100841.69;;;27.64;100.00
19128;BME280;9696;53.686;10.094;2023-06-19T12:01:03;100841.03;;;28.19;100.00
19128;BME280;9696;53.686;10.094;2023-06-19T12:03:34;100842.81;;;29.77;100.00
19128;BME280;9696;53.686;10.094;2023-06-19T12:06:08;100833.38;;;29.53;100.00
19128;BME280;9696;53.686;10.094;2023-06-19T12:08:37;100833.28;;;29.70;100.00
19128;BME280;9696;53.686;10.094;2023-06-19T12:11:06;100830.25;;;29.39;100.00
19128;BME280;9696;53.686;10.094;2023-06-19T12:13:37;100830.47;;;28.34;100.00
19128;BME280;9696;53.686;10.094;2023-06-19T12:16:06;100831.00;;;28.70;100.00
19128;BME280;9696;53.686;10.094;2023-06-19T12:18:37;100822.28;;;28.84;100.00
19128;BME280;9696;53.686;10.094;2023-06-19T12:21:06;100825.22;;;28.44;100.00
19128;BME280;9696;53.686;10.094;2023-06-19T12:23:52;100823.38;;;28.83;100.00
19128;BME280;9696;53.686;10.094;2023-06-19T12:26:21;100819.16;;;29.14;100.00
19128;BME280;9696;53.686;10.094;2023-06-19T12:28:52;100829.75;;;29.42;100.00
19128;BME280;9696;53.686;10.094;2023-06-19T12:31:22;100822.84;;;28.86;100.00
19128;BME280;9696;53.686;10.094;2023-06-19T12:33:53;100825.06;;;27.84;100.00
19128;BME280;9696;53.686;10.094;2023-06-19T12:36:23;100828.75;;;27.67;100.00
19128;BME280;9696;53.686;10.094;2023-06-19T12:38:53;100837.75;;;27.15;100.00
19128;BME280;9696;53.686;10.094;2023-06-19T12:41:22;100842.69;;;27.07;100.00
19128;BME280;9696;53.686;10.094;2023-06-19T12:43:52;100839.56;;;27.27;100.00
19128;BME280;9696;53.686;10.094;2023-06-19T12:46:21;100850.91;;;27.00;100.00
19128;BME280;9696;53.686;10.094;2023-06-19T12:48:51;100842.03;;;27.68;100.00
19128;BME280;9696;53.686;10.094;2023-06-19T12:51:22;100843.53;;;28.59;100.00
19128;BME280;9696;53.686;10.094;2023-06-19T12:53:51;100843.84;;;28.63;100.00
19128;BME280;9696;53.686;10.094;2023-06-19T12:56:20;100842.50;;;28.43;100.00
19128;BME280;9696;53.686;10.094;2023-06-19T12:58:50;100843.72;;;27.57;100.00